Time;durP1;ratioP1;P1;durP2;ratioP2;P2;SDS_P1;SDS_P2;PMS_P1;PMS_P2;Temp;Humidity;BMP_temperature;BMP_pressure;BME280_temperature;BME280_humidity;BME280_pressure;Samples;Min_cycle;Max_cycle;Signal;HPM_P1;HPM_P2
2024/02/05 00:00:17;;;;;;;0.25;0.25;;;7.70;99.90;;;;;;4403857;32;20069;-76
2024/02/05 00:02:43;;;;;;;0.35;0.35;;;7.70;99.90;;;;;;4400603;32;20513;-75
2024/02/05 00:05:10;;;;;;;0.40;0.40;;;7.80;99.90;;;;;;4403722;32;20482;-76
2024/02/05 00:07:37;;;;;;;0.40;0.40;;;7.90;99.90;;;;;;4403812;32;20147;-75
2024/02/05 00:10:05;;;;;;;0.30;0.30;;;7.90;99.90;;;;;;4405853;32;20098;-76
2024/02/05 00:12:31;;;;;;;0.40;0.40;;;8.00;99.90;;;;;;4404282;32;20614;-75
2024/02/05 00:14:57;;;;;;;0.30;0.30;;;8.10;99.90;;;;;;4407756;32;20061;-75
2024/02/05 00:17:22;;;;;;;0.30;0.30;;;8.20;99.90;;;;;;4411297;32;20111;-76
2024/02/05 00:19:48;;;;;;;0.22;0.22;;;8.30;99.90;;;;;;4407913;32;20094;-75
2024/02/05 00:22:13;;;;;;;0.37;0.37;;;8.40;99.90;;;;;;4406712;32;20146;-76
2024/02/05 00:24:39;;;;;;;0.30;0.30;;;8.50;99.90;;;;;;4405098;32;20070;-76
2024/02/05 00:27:05;;;;;;;0.30;0.30;;;8.60;99.90;;;;;;4405034;32;20086;-78
2024/02/05 00:29:30;;;;;;;0.30;0.30;;;8.70;99.90;;;;;;4406709;32;20065;-75
2024/02/05 00:31:56;;;;;;;0.30;0.30;;;8.80;99.90;;;;;;4403880;32;20088;-78
2024/02/05 00:34:21;;;;;;;0.30;0.30;;;8.80;99.90;;;;;;4406616;32;20791;-76
2024/02/05 00:36:47;;;;;;;0.20;0.20;;;8.90;99.90;;;;;;4405581;32;20062;-78
2024/02/05 00:39:13;;;;;;;0.65;0.65;;;9.00;99.90;;;;;;4406585;32;20466;-78
2024/02/05 00:41:40;;;;;;;0.40;0.40;;;9.00;99.90;;;;;;4403611;32;20094;-78
2024/02/05 00:44:05;;;;;;;0.30;0.30;;;9.10;99.90;;;;;;4404073;32;20141;-76
2024/02/05 00:46:32;;;;;;;0.40;0.40;;;9.10;99.90;;;;;;4404385;32;20081;-76
2024/02/05 00:48:59;;;;;;;0.30;0.30;;;9.20;99.90;;;;;;4401821;32;20079;-77
2024/02/05 00:51:25;;;;;;;0.30;0.30;;;9.20;99.90;;;;;;4406825;32;20419;-76
2024/02/05 00:53:51;;;;;;;0.40;0.40;;;9.20;99.90;;;;;;4407350;32;20139;-77
2024/02/05 00:56:17;;;;;;;0.30;0.30;;;9.30;99.90;;;;;;4404113;32;20165;-77
2024/02/05 00:58:43;;;;;;;0.30;0.30;;;9.30;99.90;;;;;;4404792;32;20542;-79
2024/02/05 01:01:10;;;;;;;0.30;0.30;;;9.40;99.90;;;;;;4407070;32;20085;-76
2024/02/05 01:03:36;;;;;;;0.30;0.30;;;9.40;99.90;;;;;;4408969;32;20573;-78
2024/02/05 01:06:03;;;;;;;0.22;0.22;;;9.50;99.90;;;;;;4407825;32;20073;-78
2024/02/05 01:08:29;;;;;;;0.20;0.20;;;9.50;99.90;;;;;;4403887;32;20566;-77
2024/02/05 01:10:56;;;;;;;0.30;0.30;;;9.50;99.90;;;;;;4403040;32;20085;-77
2024/02/05 01:13:22;;;;;;;0.37;0.37;;;9.50;99.90;;;;;;4404084;32;20086;-77
2024/02/05 01:15:48;;;;;;;0.25;0.25;;;9.60;99.90;;;;;;4407348;32;20093;-77
2024/02/05 01:18:14;;;;;;;0.30;0.30;;;9.60;99.90;;;;;;4407966;32;20072;-78
2024/02/05 01:20:40;;;;;;;0.40;0.40;;;9.70;99.90;;;;;;4404022;32;20085;-77
2024/02/05 01:23:05;;;;;;;0.20;0.20;;;9.70;99.90;;;;;;4404339;32;20095;-77
2024/02/05 01:25:31;;;;;;;0.40;0.40;;;9.70;99.90;;;;;;4403988;32;20077;-77
2024/02/05 01:27:56;;;;;;;0.30;0.30;;;9.70;99.90;;;;;;4402327;32;20120;-77
2024/02/05 01:30:22;;;;;;;0.20;0.20;;;9.70;99.90;;;;;;4404061;32;20442;-77
2024/02/05 01:32:47;;;;;;;0.20;0.20;;;9.80;99.90;;;;;;4401962;32;20090;-74
2024/02/05 01:35:13;;;;;;;0.30;0.30;;;9.80;99.90;;;;;;4402755;32;20079;-75
2024/02/05 01:37:39;;;;;;;0.30;0.30;;;9.80;99.90;;;;;;4403965;32;20470;-76
2024/02/05 01:40:09;;;;;;;0.30;0.30;;;9.80;99.90;;;;;;4403984;32;20568;-75
2024/02/05 01:42:37;;;;;;;0.30;0.30;;;9.80;99.90;;;;;;4403943;32;20094;-76
2024/02/05 01:45:04;;;;;;;0.35;0.35;;;9.90;99.90;;;;;;4405993;32;20082;-75
2024/02/05 01:47:31;;;;;;;0.30;0.30;;;9.90;99.90;;;;;;4407312;32;20073;-76
2024/02/05 01:49:56;;;;;;;0.30;0.30;;;9.90;99.90;;;;;;4405318;32;21081;-76
2024/02/05 01:52:23;;;;;;;0.30;0.30;;;9.90;99.90;;;;;;4405112;32;20062;-75
2024/02/05 01:54:49;;;;;;;0.30;0.30;;;9.90;99.90;;;;;;4401058;32;20657;-76
2024/02/05 01:57:15;;;;;;;0.30;0.30;;;9.90;99.90;;;;;;4404899;32;20517;-75
2024/02/05 01:59:41;;;;;;;0.20;0.20;;;9.90;99.90;;;;;;4400167;32;20608;-74
2024/02/05 02:02:08;;;;;;;0.20;0.20;;;10.00;99.90;;;;;;4403659;32;20088;-76
2024/02/05 02:04:34;;;;;;;0.30;0.30;;;9.90;99.90;;;;;;4401442;32;20089;-76
2024/02/05 02:07:03;;;;;;;0.30;0.30;;;9.90;99.90;;;;;;4403113;32;20078;-76
2024/02/05 02:09:29;;;;;;;0.20;0.20;;;10.00;99.90;;;;;;4403105;32;20098;-76
2024/02/05 02:11:55;;;;;;;0.35;0.35;;;10.00;99.90;;;;;;4402346;32;20124;-76
2024/02/05 02:14:21;;;;;;;0.40;0.40;;;10.00;99.90;;;;;;4401195;32;20133;-76
2024/02/05 02:16:46;;;;;;;0.30;0.30;;;10.10;99.90;;;;;;4401878;32;20513;-76
2024/02/05 02:19:27;;;;;;;0.20;0.20;;;10.10;99.90;;;;;;4401878;32;20081;-76
2024/02/05 02:22:08;;;;;;;0.30;0.30;;;10.00;99.90;;;;;;4403722;32;20123;-76
2024/02/05 02:24:35;;;;;;;2.12;0.43;;;10.00;99.90;;;;;;4400565;32;20105;-76
2024/02/05 02:27:01;;;;;;;0.25;0.25;;;10.00;99.90;;;;;;4401582;32;20091;-76
2024/02/05 02:29:26;;;;;;;0.22;0.22;;;10.00;99.90;;;;;;4401921;32;20432;-77
2024/02/05 02:32:02;;;;;;;0.30;0.30;;;10.00;99.90;;;;;;4403679;32;20136;-76
2024/02/05 02:34:31;;;;;;;0.20;0.20;;;10.10;99.90;;;;;;4399694;32;20534;-76
2024/02/05 02:37:03;;;;;;;0.30;0.30;;;10.10;99.90;;;;;;4403035;32;20145;-76
2024/02/05 02:39:33;;;;;;;0.30;0.30;;;10.10;99.90;;;;;;4403445;32;20439;-76
2024/02/05 02:42:00;;;;;;;0.30;0.30;;;10.00;99.90;;;;;;4402790;32;20175;-76
2024/02/05 02:44:27;;;;;;;0.20;0.20;;;10.00;99.90;;;;;;4400702;32;20077;-77
2024/02/05 02:46:56;;;;;;;0.30;0.30;;;10.00;99.90;;;;;;4403659;32;20203;-77
2024/02/05 02:49:22;;;;;;;0.37;0.37;;;10.10;99.90;;;;;;4403461;32;20530;-78
2024/02/05 02:51:48;;;;;;;0.30;0.30;;;10.10;99.90;;;;;;4399533;32;20069;-77
2024/02/05 02:54:13;;;;;;;0.30;0.30;;;10.10;99.90;;;;;;4400836;32;20422;-77
2024/02/05 02:56:40;;;;;;;0.40;0.40;;;10.10;99.90;;;;;;4399005;32;20471;-76
2024/02/05 02:59:06;;;;;;;0.25;0.25;;;10.00;99.90;;;;;;4404072;32;20537;-76
2024/02/05 03:01:31;;;;;;;0.32;0.32;;;10.00;99.90;;;;;;4401484;32;20082;-77
2024/02/05 03:03:57;;;;;;;0.30;0.30;;;10.00;99.90;;;;;;4404180;32;20078;-76
2024/02/05 03:06:22;;;;;;;0.20;0.20;;;10.00;99.90;;;;;;4405827;32;20097;-76
2024/02/05 03:08:48;;;;;;;0.22;0.22;;;10.10;99.90;;;;;;4401948;32;20497;-76
2024/02/05 03:11:13;;;;;;;0.20;0.20;;;10.10;99.90;;;;;;4402453;32;20125;-76
2024/02/05 03:13:40;;;;;;;0.30;0.30;;;10.00;99.90;;;;;;4401942;32;20089;-75
2024/02/05 03:16:06;;;;;;;0.30;0.30;;;10.00;99.90;;;;;;4402894;32;20585;-76
2024/02/05 03:18:31;;;;;;;0.30;0.30;;;10.00;99.90;;;;;;4406241;32;20090;-76
2024/02/05 03:20:57;;;;;;;0.30;0.30;;;10.00;99.90;;;;;;4405864;32;20147;-75
2024/02/05 03:23:22;;;;;;;0.25;0.25;;;10.00;99.90;;;;;;4400667;32;20099;-76
2024/02/05 03:25:49;;;;;;;0.40;0.40;;;10.00;99.90;;;;;;4403118;32;20081;-76
2024/02/05 03:28:15;;;;;;;0.30;0.30;;;10.00;99.90;;;;;;4403802;32;20070;-76
2024/02/05 03:30:41;;;;;;;2.17;0.55;;;10.00;99.90;;;;;;4404569;32;20107;-75
2024/02/05 03:33:07;;;;;;;0.30;0.30;;;10.00;99.90;;;;;;4403132;32;20391;-76
2024/02/05 03:35:33;;;;;;;0.20;0.20;;;10.10;99.90;;;;;;4403672;32;20081;-75
2024/02/05 03:37:58;;;;;;;0.30;0.30;;;10.10;99.90;;;;;;4399665;32;20074;-75
2024/02/05 03:40:24;;;;;;;0.30;0.30;;;10.10;99.90;;;;;;4403976;32;20098;-76
2024/02/05 03:42:50;;;;;;;0.32;0.32;;;10.10;99.90;;;;;;4401909;32;20423;-78
2024/02/05 03:45:16;;;;;;;0.40;0.40;;;10.00;99.90;;;;;;4401495;32;20093;-76
2024/02/05 03:47:43;;;;;;;0.30;0.30;;;10.10;99.90;;;;;;4404613;32;20065;-78
2024/02/05 03:50:11;;;;;;;0.30;0.30;;;10.00;99.90;;;;;;4405941;32;20529;-78
2024/02/05 03:52:39;;;;;;;0.25;0.25;;;10.00;99.90;;;;;;4405437;32;20131;-77
2024/02/05 03:55:06;;;;;;;0.60;0.60;;;10.00;99.90;;;;;;4402198;32;20127;-77
2024/02/05 03:57:32;;;;;;;0.30;0.30;;;10.00;99.90;;;;;;4401987;32;20126;-76
2024/02/05 03:59:59;;;;;;;0.95;0.45;;;10.00;99.90;;;;;;4401065;32;20518;-77
2024/02/05 04:02:27;;;;;;;0.20;0.20;;;10.00;99.90;;;;;;4399022;32;20494;-75
2024/02/05 04:04:52;;;;;;;0.30;0.30;;;10.00;99.90;;;;;;4398098;32;20081;-77
2024/02/05 04:07:18;;;;;;;0.37;0.37;;;10.00;99.90;;;;;;4401755;32;20085;-76
2024/02/05 04:09:43;;;;;;;0.40;0.40;;;10.00;99.90;;;;;;4404945;32;20129;-76
2024/02/05 04:12:09;;;;;;;0.40;0.40;;;10.00;99.90;;;;;;4400683;32;20169;-77
2024/02/05 04:14:35;;;;;;;0.40;0.40;;;10.00;99.90;;;;;;4404113;32;20135;-77
2024/02/05 04:17:00;;;;;;;0.30;0.30;;;10.00;99.90;;;;;;4402208;32;20081;-75
2024/02/05 04:19:26;;;;;;;0.30;0.30;;;10.00;99.90;;;;;;4405571;32;20082;-76
2024/02/05 04:21:51;;;;;;;0.30;0.30;;;10.00;99.90;;;;;;4402458;32;20084;-77
2024/02/05 04:24:18;;;;;;;0.30;0.30;;;10.00;99.90;;;;;;4408105;32;20086;-77
2024/02/05 04:26:44;;;;;;;0.40;0.40;;;10.00;99.90;;;;;;4400459;32;20538;-77
2024/02/05 04:29:14;;;;;;;0.32;0.32;;;10.00;99.90;;;;;;4402395;32;20066;-77
2024/02/05 04:31:40;;;;;;;0.40;0.40;;;10.00;99.90;;;;;;4403982;32;20454;-78
2024/02/05 04:34:06;;;;;;;0.30;0.30;;;10.00;99.90;;;;;;4399164;32;20078;-77
2024/02/05 04:36:31;;;;;;;0.30;0.30;;;10.00;99.90;;;;;;4402339;32;21188;-77
2024/02/05 04:38:57;;;;;;;0.40;0.40;;;10.00;99.90;;;;;;4405152;32;20295;-78
2024/02/05 04:41:22;;;;;;;0.30;0.30;;;10.00;99.90;;;;;;4398786;32;20451;-77
2024/02/05 04:43:48;;;;;;;0.40;0.40;;;10.00;99.90;;;;;;4404673;32;20128;-77
2024/02/05 04:46:14;;;;;;;0.30;0.30;;;10.00;99.90;;;;;;4401406;32;20081;-78
2024/02/05 04:48:39;;;;;;;0.40;0.40;;;10.00;99.90;;;;;;4404016;32;20474;-77
2024/02/05 04:51:12;;;;;;;0.50;0.50;;;10.00;99.90;;;;;;4404083;32;20082;-77
2024/02/05 04:53:37;;;;;;;0.40;0.40;;;10.00;99.90;;;;;;4399453;32;20066;-78
2024/02/05 04:56:03;;;;;;;0.30;0.30;;;10.00;99.90;;;;;;4400519;32;20093;-78
2024/02/05 04:58:29;;;;;;;0.30;0.30;;;10.00;99.90;;;;;;4405115;32;20085;-77
2024/02/05 05:00:56;;;;;;;0.32;0.32;;;10.00;99.90;;;;;;4404134;32;20070;-77
2024/02/05 05:03:22;;;;;;;0.30;0.30;;;10.00;99.90;;;;;;4403041;32;20068;-77
2024/02/05 05:05:47;;;;;;;0.40;0.40;;;10.00;99.90;;;;;;4404641;32;20082;-76
2024/02/05 05:08:13;;;;;;;0.30;0.30;;;10.00;99.90;;;;;;4402192;32;20073;-77
2024/02/05 05:10:38;;;;;;;0.30;0.30;;;10.00;99.90;;;;;;4405114;32;20121;-77
2024/02/05 05:13:05;;;;;;;0.40;0.40;;;10.00;99.90;;;;;;4400823;32;20078;-77
2024/02/05 05:15:31;;;;;;;0.30;0.30;;;10.00;99.90;;;;;;4401221;32;20086;-76
2024/02/05 05:17:56;;;;;;;0.30;0.30;;;10.00;99.90;;;;;;4405428;32;20106;-77
2024/02/05 05:20:22;;;;;;;0.30;0.30;;;10.00;99.90;;;;;;4408418;32;20085;-77
2024/02/05 05:22:47;;;;;;;0.30;0.30;;;10.00;99.90;;;;;;4397519;32;20353;-77
2024/02/05 05:25:13;;;;;;;0.30;0.30;;;10.00;99.90;;;;;;4403652;32;20101;-76
2024/02/05 05:27:39;;;;;;;0.30;0.30;;;10.00;99.90;;;;;;4402528;32;20538;-77
2024/02/05 05:30:05;;;;;;;0.30;0.30;;;10.00;99.90;;;;;;4403856;32;20158;-76
2024/02/05 05:32:31;;;;;;;0.40;0.40;;;10.00;99.90;;;;;;4405095;32;20081;-76
2024/02/05 05:34:57;;;;;;;0.30;0.30;;;10.00;99.90;;;;;;4404002;32;20749;-76
2024/02/05 05:37:23;;;;;;;0.30;0.30;;;10.00;99.90;;;;;;4402976;32;20078;-77
2024/02/05 05:39:51;;;;;;;0.32;0.32;;;9.90;99.90;;;;;;4405394;32;20070;-77
2024/02/05 05:42:17;;;;;;;0.30;0.30;;;9.90;99.90;;;;;;4407069;32;20062;-76
2024/02/05 05:44:42;;;;;;;0.30;0.30;;;9.90;99.90;;;;;;4404874;32;20077;-76
2024/02/05 05:47:08;;;;;;;0.40;0.40;;;10.00;99.90;;;;;;4405024;32;20292;-77
2024/02/05 05:49:33;;;;;;;0.30;0.30;;;10.00;99.90;;;;;;4406593;32;20078;-77
2024/02/05 05:51:59;;;;;;;0.37;0.37;;;9.90;99.90;;;;;;4403441;32;20109;-77
2024/02/05 05:54:26;;;;;;;0.40;0.40;;;9.90;99.90;;;;;;4402859;32;20216;-77
2024/02/05 05:56:52;;;;;;;0.30;0.30;;;9.90;99.90;;;;;;4405503;32;20479;-77
2024/02/05 05:59:19;;;;;;;0.35;0.35;;;9.90;99.90;;;;;;4402366;32;20094;-77
2024/02/05 06:04:10;;;;;;;0.40;0.40;;;9.90;99.90;;;;;;4403960;32;20298;-78
2024/02/05 06:06:37;;;;;;;0.30;0.30;;;9.90;99.90;;;;;;4390899;32;20078;-76
2024/02/05 06:09:05;;;;;;;0.40;0.40;;;10.00;99.90;;;;;;4402511;32;20311;-76
2024/02/05 06:11:32;;;;;;;0.30;0.30;;;9.90;99.90;;;;;;4402757;32;20086;-78
2024/02/05 06:13:58;;;;;;;0.28;0.28;;;10.00;99.90;;;;;;4394300;32;20664;-78
2024/02/05 06:16:25;;;;;;;0.40;0.40;;;9.90;99.90;;;;;;4401497;32;20078;-78
2024/02/05 06:18:50;;;;;;;0.22;0.22;;;9.90;99.90;;;;;;4404516;32;20089;-77
2024/02/05 06:21:17;;;;;;;0.30;0.30;;;9.90;99.90;;;;;;4393632;32;20081;-77
2024/02/05 06:23:43;;;;;;;0.30;0.30;;;9.90;99.90;;;;;;4402697;32;20085;-77
2024/02/05 06:26:10;;;;;;;0.30;0.30;;;9.90;99.90;;;;;;4395001;32;21011;-79
2024/02/05 06:28:36;;;;;;;0.35;0.35;;;9.90;99.90;;;;;;4396028;32;20086;-76
2024/02/05 06:31:02;;;;;;;0.30;0.30;;;10.00;99.90;;;;;;4401987;32;20086;-77
2024/02/05 06:33:30;;;;;;;0.30;0.30;;;10.00;99.90;;;;;;4400281;32;20164;-77
2024/02/05 06:35:56;;;;;;;0.40;0.40;;;9.90;99.90;;;;;;4404656;32;20734;-78
2024/02/05 06:38:22;;;;;;;0.30;0.30;;;9.90;99.90;;;;;;4398152;32;20077;-77
2024/02/05 06:40:48;;;;;;;0.30;0.30;;;9.90;99.90;;;;;;4403484;32;20094;-76
2024/02/05 06:43:13;;;;;;;0.30;0.30;;;9.90;99.90;;;;;;4403174;32;20122;-76
2024/02/05 06:45:39;;;;;;;0.35;0.35;;;9.90;99.90;;;;;;4403345;32;20482;-77
2024/02/05 06:48:05;;;;;;;0.30;0.30;;;9.90;99.90;;;;;;4403663;32;20054;-77
2024/02/05 06:50:31;;;;;;;0.40;0.40;;;10.00;99.90;;;;;;4405244;32;20081;-77
2024/02/05 06:52:57;;;;;;;0.45;0.45;;;10.00;99.90;;;;;;4402632;32;20065;-77
2024/02/05 06:55:23;;;;;;;0.40;0.40;;;10.00;99.90;;;;;;4403187;32;20091;-77
2024/02/05 06:57:48;;;;;;;7.32;0.62;;;10.00;99.90;;;;;;4403004;32;20089;-78
2024/02/05 07:00:14;;;;;;;0.30;0.30;;;10.00;99.90;;;;;;4404439;32;20077;-77
2024/02/05 07:02:40;;;;;;;0.30;0.30;;;10.00;99.90;;;;;;4400583;32;20082;-77
2024/02/05 07:05:06;;;;;;;0.30;0.30;;;10.00;99.90;;;;;;4403586;32;20077;-77
2024/02/05 07:07:33;;;;;;;0.30;0.30;;;10.00;99.90;;;;;;4402840;32;20077;-78
2024/02/05 07:10:02;;;;;;;0.30;0.30;;;10.00;99.90;;;;;;4400901;32;20149;-77
2024/02/05 07:12:27;;;;;;;0.30;0.30;;;10.10;99.90;;;;;;4402323;32;20082;-77
2024/02/05 07:14:53;;;;;;;0.30;0.30;;;10.00;99.90;;;;;;4404275;32;20435;-77
2024/02/05 07:17:28;;;;;;;0.73;0.70;;;10.10;99.90;;;;;;4404428;32;20081;-77
2024/02/05 07:19:54;;;;;;;0.30;0.30;;;10.10;99.90;;;;;;4402331;32;20594;-77
2024/02/05 07:22:19;;;;;;;30.67;1.00;;;10.10;99.90;;;;;;4399410;32;20085;-77
2024/02/05 07:24:45;;;;;;;0.40;0.40;;;10.10;99.90;;;;;;4404572;32;20061;-76
2024/02/05 07:27:10;;;;;;;0.30;0.30;;;10.10;99.90;;;;;;4404347;32;20125;-77
2024/02/05 07:29:42;;;;;;;0.30;0.30;;;10.10;99.90;;;;;;4401856;32;20080;-77
2024/02/05 07:32:07;;;;;;;0.40;0.40;;;10.10;99.90;;;;;;4401676;32;20086;-77
2024/02/05 07:34:33;;;;;;;0.40;0.40;;;10.10;99.90;;;;;;4403942;32;20090;-76
2024/02/05 07:36:58;;;;;;;3.03;1.58;;;10.10;99.90;;;;;;4403905;32;20136;-76
2024/02/05 07:39:24;;;;;;;0.50;0.50;;;10.10;99.90;;;;;;4402483;32;20085;-77
2024/02/05 07:41:50;;;;;;;4.37;1.40;;;10.10;99.90;;;;;;4403508;32;20141;-76
2024/02/05 07:44:16;;;;;;;0.82;0.82;;;10.00;99.90;;;;;;4404319;32;20310;-76
2024/02/05 07:46:41;;;;;;;0.50;0.50;;;10.00;99.90;;;;;;4401075;32;20086;-76
2024/02/05 07:49:07;;;;;;;0.62;0.62;;;10.00;99.90;;;;;;4404747;32;20077;-75
2024/02/05 07:51:33;;;;;;;0.30;0.30;;;10.00;99.90;;;;;;4405494;32;20072;-75
2024/02/05 07:53:59;;;;;;;0.30;0.30;;;10.00;99.90;;;;;;4402246;32;20090;-77
2024/02/05 07:56:24;;;;;;;0.37;0.37;;;10.00;99.90;;;;;;4402547;32;20098;-78
2024/02/05 07:58:51;;;;;;;0.70;0.70;;;10.00;99.90;;;;;;4402310;32;20147;-79
2024/02/05 08:01:16;;;;;;;2.05;0.68;;;10.00;99.90;;;;;;4402583;32;20473;-79
2024/02/05 08:03:42;;;;;;;0.30;0.30;;;10.00;99.90;;;;;;4400736;32;20081;-77
2024/02/05 08:06:08;;;;;;;0.30;0.30;;;10.00;99.90;;;;;;4403807;32;20069;-78
2024/02/05 08:08:34;;;;;;;0.75;0.40;;;10.00;99.90;;;;;;4399910;32;20508;-78
2024/02/05 08:10:59;;;;;;;0.30;0.30;;;10.00;99.90;;;;;;4400244;32;20151;-77
2024/02/05 08:13:25;;;;;;;1.75;0.98;;;10.00;99.90;;;;;;4401136;32;20483;-77
2024/02/05 08:15:50;;;;;;;0.28;0.28;;;10.00;99.90;;;;;;4398877;32;20081;-77
2024/02/05 08:18:16;;;;;;;0.30;0.30;;;10.00;99.90;;;;;;4403442;32;20140;-77
2024/02/05 08:20:41;;;;;;;0.32;0.32;;;10.00;99.90;;;;;;4403612;32;20088;-77
2024/02/05 08:23:07;;;;;;;0.88;0.82;;;10.00;99.90;;;;;;4404832;32;20124;-77
2024/02/05 08:25:34;;;;;;;0.40;0.40;;;10.00;99.90;;;;;;4399914;32;21096;-78
2024/02/05 08:28:00;;;;;;;0.30;0.30;;;10.00;99.90;;;;;;4400357;32;20136;-77
2024/02/05 08:30:26;;;;;;;0.40;0.40;;;9.90;99.90;;;;;;4402700;32;20129;-77
2024/02/05 08:32:51;;;;;;;1.12;0.82;;;10.00;99.90;;;;;;4401936;32;20715;-77
2024/02/05 08:35:17;;;;;;;0.65;0.65;;;10.00;99.90;;;;;;4405683;32;20061;-76
2024/02/05 08:37:42;;;;;;;1.75;1.25;;;10.00;99.90;;;;;;4402808;32;20535;-75
2024/02/05 08:40:08;;;;;;;1.48;0.60;;;10.00;99.90;;;;;;4406623;32;20081;-77
2024/02/05 08:42:35;;;;;;;1.10;0.73;;;10.00;99.90;;;;;;4404433;32;20081;-74
2024/02/05 08:45:01;;;;;;;0.30;0.30;;;10.00;99.90;;;;;;4407854;32;20069;-75
2024/02/05 08:47:26;;;;;;;0.30;0.30;;;9.90;99.90;;;;;;4401943;32;20077;-74
2024/02/05 08:49:52;;;;;;;0.30;0.30;;;9.90;99.90;;;;;;4408362;32;20070;-75
2024/02/05 08:52:17;;;;;;;0.70;0.70;;;10.00;99.90;;;;;;4403741;32;20601;-76
2024/02/05 08:54:43;;;;;;;1.02;0.85;;;10.00;99.90;;;;;;4405617;32;20074;-74
2024/02/05 08:57:08;;;;;;;0.30;0.30;;;10.00;99.90;;;;;;4403087;32;20541;-75
2024/02/05 08:59:34;;;;;;;3.87;1.50;;;9.90;99.90;;;;;;4404576;32;20077;-76
2024/02/05 09:01:59;;;;;;;1.12;0.52;;;9.90;99.90;;;;;;4405335;32;20533;-75
2024/02/05 09:04:25;;;;;;;0.73;0.73;;;9.90;99.90;;;;;;4407907;32;20074;-75
2024/02/05 09:06:51;;;;;;;2.10;0.65;;;9.90;99.90;;;;;;4406236;32;20080;-76
2024/02/05 09:09:18;;;;;;;0.35;0.35;;;9.90;99.90;;;;;;4404043;32;20117;-78
2024/02/05 09:11:44;;;;;;;0.65;0.65;;;9.90;99.90;;;;;;4403485;32;20217;-76
2024/02/05 09:14:10;;;;;;;0.40;0.40;;;9.90;99.90;;;;;;4404028;32;20154;-77
2024/02/05 09:16:36;;;;;;;0.30;0.30;;;9.90;99.90;;;;;;4406030;32;20124;-77
2024/02/05 09:19:08;;;;;;;0.57;0.57;;;9.90;99.90;;;;;;4405529;32;20742;-76
2024/02/05 09:21:33;;;;;;;0.80;0.80;;;9.90;99.90;;;;;;4408026;32;21190;-77
2024/02/05 09:23:59;;;;;;;1.90;1.55;;;9.90;99.90;;;;;;4408203;32;20086;-75
2024/02/05 09:26:27;;;;;;;0.43;0.43;;;9.90;99.90;;;;;;4405811;32;20089;-77
2024/02/05 09:28:53;;;;;;;0.30;0.30;;;9.90;99.90;;;;;;4404915;32;20158;-75
2024/02/05 09:31:18;;;;;;;14.90;0.65;;;9.90;99.90;;;;;;4404492;32;20211;-75
2024/02/05 09:33:45;;;;;;;3.20;1.52;;;9.90;99.90;;;;;;4408379;32;20066;-76
2024/02/05 09:36:10;;;;;;;3.25;1.45;;;9.90;99.90;;;;;;4405756;32;20077;-77
2024/02/05 09:38:36;;;;;;;0.52;0.35;;;9.90;99.90;;;;;;4403292;32;20131;-76
2024/02/05 09:41:04;;;;;;;0.50;0.50;;;10.00;99.90;;;;;;4402686;32;20141;-76
2024/02/05 09:43:32;;;;;;;2.40;0.60;;;9.90;99.90;;;;;;4405060;32;20148;-77
2024/02/05 09:46:04;;;;;;;0.88;0.88;;;10.00;99.90;;;;;;4407524;32;20086;-80
2024/02/05 09:48:34;;;;;;;2.53;0.68;;;9.90;99.90;;;;;;4404666;32;20078;-77
2024/02/05 09:51:01;;;;;;;0.50;0.50;;;10.00;99.90;;;;;;4402656;32;20089;-78
2024/02/05 09:53:28;;;;;;;9.95;3.17;;;10.00;99.90;;;;;;4401060;32;20529;-77
2024/02/05 09:55:55;;;;;;;0.60;0.60;;;10.00;99.90;;;;;;4403263;32;20085;-77
2024/02/05 09:58:22;;;;;;;0.47;0.47;;;10.10;99.90;;;;;;4405988;32;20081;-76
2024/02/05 10:00:54;;;;;;;0.35;0.35;;;10.10;99.90;;;;;;4400572;32;20077;-80
2024/02/05 10:03:20;;;;;;;1.35;0.50;;;10.10;99.90;;;;;;4402872;32;20074;-78
2024/02/05 10:05:49;;;;;;;3.97;1.23;;;10.10;99.90;;;;;;4407504;32;20411;-78
2024/02/05 10:08:16;;;;;;;0.40;0.40;;;10.10;99.90;;;;;;4403274;32;20074;-77
2024/02/05 10:10:43;;;;;;;2.60;0.70;;;10.10;99.90;;;;;;4406157;32;20209;-77
2024/02/05 10:13:10;;;;;;;1.20;1.05;;;10.20;99.90;;;;;;4402903;32;20094;-78
2024/02/05 10:15:38;;;;;;;0.30;0.30;;;10.20;99.90;;;;;;4404291;32;21221;-78
2024/02/05 10:18:04;;;;;;;1.85;1.08;;;10.20;99.90;;;;;;4403459;32;20329;-79
2024/02/05 10:20:33;;;;;;;0.30;0.30;;;10.30;99.90;;;;;;4408728;32;20505;-79
2024/02/05 10:22:59;;;;;;;0.40;0.40;;;10.30;99.90;;;;;;4393081;32;20090;-79
2024/02/05 10:25:26;;;;;;;0.30;0.30;;;10.20;99.90;;;;;;4406197;32;20078;-79
2024/02/05 10:28:00;;;;;;;0.35;0.35;;;10.20;99.90;;;;;;4399951;32;20089;-78
2024/02/05 10:30:28;;;;;;;0.47;0.47;;;10.30;99.90;;;;;;4392600;32;20198;-77
2024/02/05 10:32:59;;;;;;;0.43;0.43;;;10.20;99.90;;;;;;4401002;32;20996;-78
2024/02/05 10:35:26;;;;;;;0.57;0.57;;;10.30;99.90;;;;;;4404162;32;20125;-79
2024/02/05 10:37:51;;;;;;;0.50;0.50;;;10.30;99.90;;;;;;4400500;32;20101;-78
2024/02/05 10:40:17;;;;;;;1.77;1.00;;;10.30;99.90;;;;;;4405800;32;21046;-78
2024/02/05 10:42:43;;;;;;;1.17;0.90;;;10.30;99.90;;;;;;4401657;32;20153;-78
2024/02/05 10:45:10;;;;;;;2.15;1.35;;;10.30;99.90;;;;;;4403264;32;20086;-80
2024/02/05 10:47:36;;;;;;;0.60;0.60;;;10.30;99.90;;;;;;4400913;32;20078;-77
2024/02/05 10:50:03;;;;;;;6.57;1.52;;;10.30;99.90;;;;;;4404434;32;20115;-80
2024/02/05 10:52:30;;;;;;;0.35;0.35;;;10.30;99.90;;;;;;4406364;32;20120;-79
2024/02/05 10:54:57;;;;;;;0.70;0.70;;;10.30;99.90;;;;;;4407079;32;20065;-78
2024/02/05 10:57:24;;;;;;;0.55;0.55;;;10.20;99.90;;;;;;4400546;32;20082;-78
2024/02/05 10:59:53;;;;;;;0.50;0.50;;;10.20;99.90;;;;;;4403578;32;20081;-79
2024/02/05 11:02:25;;;;;;;0.68;0.68;;;10.20;99.90;;;;;;4405872;32;20137;-78
2024/02/05 11:04:54;;;;;;;28.67;3.47;;;10.10;99.90;;;;;;4405309;32;20075;-76
2024/02/05 11:07:24;;;;;;;0.50;0.50;;;10.10;99.90;;;;;;4404762;32;20081;-76
2024/02/05 11:10:01;;;;;;;4.80;1.48;;;10.00;99.90;;;;;;4403799;32;20124;-78
2024/02/05 11:12:31;;;;;;;2.00;1.10;;;10.00;99.90;;;;;;4400390;32;20077;-78
2024/02/05 11:15:04;;;;;;;0.68;0.68;;;10.00;99.90;;;;;;4402944;32;20525;-77
2024/02/05 11:17:33;;;;;;;2.70;1.05;;;10.00;99.90;;;;;;4402613;32;20596;-77
2024/02/05 11:20:00;;;;;;;0.30;0.30;;;9.90;99.90;;;;;;4405960;32;20097;-74
2024/02/05 11:22:26;;;;;;;1.20;1.15;;;10.00;99.90;;;;;;4405601;32;20140;-76
2024/02/05 11:24:52;;;;;;;6.05;1.80;;;10.00;99.90;;;;;;4403780;32;20077;-78
2024/02/05 11:27:19;;;;;;;2.87;2.08;;;10.00;99.90;;;;;;4399006;32;20073;-78
2024/02/05 11:29:44;;;;;;;4.03;1.67;;;10.10;99.90;;;;;;4398515;32;20090;-80
2024/02/05 11:32:10;;;;;;;2.55;1.45;;;10.10;99.90;;;;;;4404025;32;20070;-80
2024/02/05 11:34:40;;;;;;;1.37;1.23;;;10.10;99.90;;;;;;4405126;32;20463;-76
2024/02/05 11:37:24;;;;;;;1.20;0.95;;;10.10;99.90;;;;;;4406936;32;20073;-78
2024/02/05 11:39:51;;;;;;;2.28;1.10;;;10.10;99.90;;;;;;4401373;32;20088;-77
2024/02/05 11:42:18;;;;;;;2.50;1.75;;;10.10;99.90;;;;;;4403861;32;20081;-78
2024/02/05 11:44:46;;;;;;;2.45;1.85;;;10.10;99.90;;;;;;4402103;32;20193;-76
2024/02/05 11:47:12;;;;;;;0.60;0.60;;;10.10;99.90;;;;;;4403215;32;20085;-80
2024/02/05 11:49:38;;;;;;;0.70;0.70;;;10.10;99.90;;;;;;4404650;32;20085;-77
2024/02/05 11:52:04;;;;;;;0.47;0.47;;;10.10;99.90;;;;;;4397652;32;198388;-79
2024/02/05 11:54:31;;;;;;;1.98;1.15;;;10.10;99.90;;;;;;4407088;32;20090;-77
2024/02/05 11:56:57;;;;;;;6.55;0.98;;;10.10;99.90;;;;;;4404098;32;20049;-78
2024/02/05 11:59:23;;;;;;;0.95;0.93;;;10.10;99.90;;;;;;4405106;32;20106;-78
2024/02/05 12:01:49;;;;;;;0.75;0.75;;;10.10;99.90;;;;;;4389196;32;20614;-77
2024/02/05 12:04:17;;;;;;;1.55;1.25;;;10.10;99.90;;;;;;4404421;32;20521;-75
2024/02/05 12:06:46;;;;;;;7.75;1.12;;;10.10;99.90;;;;;;4403184;32;20538;-75
2024/02/05 12:09:13;;;;;;;1.12;0.95;;;10.10;99.90;;;;;;4399372;32;20081;-75
2024/02/05 12:11:40;;;;;;;3.10;1.70;;;10.10;99.90;;;;;;4406725;32;20066;-75
2024/02/05 12:14:07;;;;;;;0.90;0.90;;;10.10;99.90;;;;;;4403653;32;20070;-76
2024/02/05 12:16:33;;;;;;;1.45;0.75;;;10.10;99.90;;;;;;4404937;32;20058;-74
2024/02/05 12:18:59;;;;;;;5.60;2.30;;;10.00;99.90;;;;;;4402021;32;20066;-75
2024/02/05 12:21:26;;;;;;;0.77;0.77;;;10.00;99.90;;;;;;4403679;32;20435;-77
2024/02/05 12:23:52;;;;;;;0.60;0.60;;;10.00;99.90;;;;;;4405700;32;20542;-76
2024/02/05 12:26:18;;;;;;;1.27;0.93;;;10.00;99.90;;;;;;4406156;32;20054;-76
2024/02/05 12:28:50;;;;;;;1.45;0.95;;;10.00;99.90;;;;;;4404821;32;20098;-75
2024/02/05 12:31:20;;;;;;;0.45;0.45;;;10.00;99.90;;;;;;4401582;32;20097;-75
2024/02/05 12:33:58;;;;;;;0.60;0.60;;;10.00;99.90;;;;;;4406956;32;20094;-75
2024/02/05 12:36:26;;;;;;;1.45;1.30;;;10.00;99.90;;;;;;4401895;32;20497;-75
2024/02/05 12:38:52;;;;;;;29.02;0.85;;;10.00;99.90;;;;;;4403719;32;20073;-76
2024/02/05 12:41:18;;;;;;;7.72;1.35;;;10.10;99.90;;;;;;4400797;32;20469;-75
2024/02/05 12:43:44;;;;;;;2.62;1.37;;;10.00;99.90;;;;;;4399623;32;20234;-73
2024/02/05 12:46:09;;;;;;;2.42;1.25;;;10.10;99.90;;;;;;4403296;32;20550;-75
2024/02/05 12:48:36;;;;;;;0.80;0.80;;;10.10;99.90;;;;;;4402951;32;20070;-77